sensor_id;sensor_type;location;lat;lon;timestamp;P1;durP1;ratioP1;P2;durP2;ratioP2
30571;SDS011;17348;50.948;10.696;2022-12-07T00:02:23;11.90;;;3.63;;
30571;SDS011;17348;50.948;10.696;2022-12-07T00:05:27;7.03;;;3.90;;
30571;SDS011;17348;50.948;10.696;2022-12-07T00:08:32;7.83;;;3.30;;
30571;SDS011;17348;50.948;10.696;2022-12-07T00:11:34;6.93;;;3.80;;
30571;SDS011;17348;50.948;10.696;2022-12-07T00:14:37;11.27;;;3.60;;
30571;SDS011;17348;50.948;10.696;2022-12-07T00:17:39;6.43;;;3.10;;
30571;SDS011;17348;50.948;10.696;2022-12-07T00:20:43;6.07;;;2.83;;
30571;SDS011;17348;50.948;10.696;2022-12-07T00:23:46;14.60;;;3.63;;
30571;SDS011;17348;50.948;10.696;2022-12-07T00:26:49;6.77;;;3.07;;
30571;SDS011;17348;50.948;10.696;2022-12-07T00:29:52;8.70;;;4.07;;
30571;SDS011;17348;50.948;10.696;2022-12-07T00:32:54;9.63;;;4.13;;
30571;SDS011;17348;50.948;10.696;2022-12-07T00:35:58;11.03;;;4.30;;
30571;SDS011;17348;50.948;10.696;2022-12-07T00:39:01;8.30;;;3.50;;
30571;SDS011;17348;50.948;10.696;2022-12-07T00:42:03;8.17;;;4.47;;
30571;SDS011;17348;50.948;10.696;2022-12-07T00:45:06;10.67;;;4.10;;
30571;SDS011;17348;50.948;10.696;2022-12-07T00:48:09;9.53;;;4.07;;
30571;SDS011;17348;50.948;10.696;2022-12-07T00:51:14;9.57;;;4.10;;
30571;SDS011;17348;50.948;10.696;2022-12-07T00:54:17;11.07;;;4.37;;
30571;SDS011;17348;50.948;10.696;2022-12-07T00:57:19;12.40;;;5.30;;
30571;SDS011;17348;50.948;10.696;2022-12-07T01:00:22;11.40;;;4.67;;
30571;SDS011;17348;50.948;10.696;2022-12-07T01:03:24;14.03;;;5.37;;
30571;SDS011;17348;50.948;10.696;2022-12-07T01:06:28;9.97;;;5.17;;
30571;SDS011;17348;50.948;10.696;2022-12-07T01:09:31;12.43;;;5.10;;
30571;SDS011;17348;50.948;10.696;2022-12-07T01:12:34;12.13;;;5.97;;
30571;SDS011;17348;50.948;10.696;2022-12-07T01:15:38;21.33;;;5.93;;
30571;SDS011;17348;50.948;10.696;2022-12-07T01:18:41;9.07;;;4.87;;
30571;SDS011;17348;50.948;10.696;2022-12-07T01:21:45;9.80;;;5.13;;
30571;SDS011;17348;50.948;10.696;2022-12-07T01:24:48;11.67;;;5.73;;
30571;SDS011;17348;50.948;10.696;2022-12-07T01:27:50;9.90;;;4.40;;
30571;SDS011;17348;50.948;10.696;2022-12-07T01:30:56;9.87;;;5.17;;
30571;SDS011;17348;50.948;10.696;2022-12-07T01:33:59;9.33;;;4.73;;
30571;SDS011;17348;50.948;10.696;2022-12-07T01:37:03;8.10;;;4.53;;
30571;SDS011;17348;50.948;10.696;2022-12-07T01:40:06;11.00;;;4.43;;
30571;SDS011;17348;50.948;10.696;2022-12-07T01:43:13;9.53;;;4.93;;
30571;SDS011;17348;50.948;10.696;2022-12-07T01:46:18;10.20;;;3.83;;
30571;SDS011;17348;50.948;10.696;2022-12-07T01:49:23;8.37;;;4.90;;
30571;SDS011;17348;50.948;10.696;2022-12-07T01:52:31;11.50;;;5.30;;
30571;SDS011;17348;50.948;10.696;2022-12-07T01:55:37;10.20;;;4.83;;
30571;SDS011;17348;50.948;10.696;2022-12-07T01:58:43;10.10;;;4.93;;
30571;SDS011;17348;50.948;10.696;2022-12-07T02:01:49;12.97;;;5.30;;
30571;SDS011;17348;50.948;10.696;2022-12-07T02:04:51;9.83;;;5.13;;
30571;SDS011;17348;50.948;10.696;2022-12-07T02:08:01;12.43;;;6.10;;
30571;SDS011;17348;50.948;10.696;2022-12-07T02:11:06;16.97;;;6.97;;
30571;SDS011;17348;50.948;10.696;2022-12-07T02:14:12;13.77;;;5.80;;
30571;SDS011;17348;50.948;10.696;2022-12-07T02:17:16;12.63;;;5.97;;
30571;SDS011;17348;50.948;10.696;2022-12-07T02:20:28;11.03;;;5.70;;
30571;SDS011;17348;50.948;10.696;2022-12-07T02:23:44;10.80;;;5.23;;
30571;SDS011;17348;50.948;10.696;2022-12-07T02:27:10;12.37;;;5.60;;
30571;SDS011;17348;50.948;10.696;2022-12-07T02:30:44;14.53;;;6.83;;
30571;SDS011;17348;50.948;10.696;2022-12-07T02:33:51;13.10;;;6.70;;
30571;SDS011;17348;50.948;10.696;2022-12-07T02:37:01;11.07;;;5.90;;
30571;SDS011;17348;50.948;10.696;2022-12-07T02:40:09;8.37;;;4.83;;
30571;SDS011;17348;50.948;10.696;2022-12-07T02:43:17;14.10;;;5.97;;
30571;SDS011;17348;50.948;10.696;2022-12-07T02:46:27;13.53;;;6.93;;
30571;SDS011;17348;50.948;10.696;2022-12-07T02:49:32;12.50;;;5.77;;
30571;SDS011;17348;50.948;10.696;2022-12-07T02:52:35;9.23;;;5.30;;
30571;SDS011;17348;50.948;10.696;2022-12-07T02:55:38;14.97;;;6.60;;
30571;SDS011;17348;50.948;10.696;2022-12-07T02:58:46;12.50;;;6.33;;
30571;SDS011;17348;50.948;10.696;2022-12-07T03:02:05;16.57;;;7.30;;
30571;SDS011;17348;50.948;10.696;2022-12-07T03:05:21;17.37;;;7.23;;
30571;SDS011;17348;50.948;10.696;2022-12-07T03:08:49;13.13;;;6.50;;
30571;SDS011;17348;50.948;10.696;2022-12-07T03:11:59;14.33;;;7.53;;
30571;SDS011;17348;50.948;10.696;2022-12-07T03:15:07;15.20;;;6.82;;
30571;SDS011;17348;50.948;10.696;2022-12-07T03:18:15;16.73;;;8.37;;
30571;SDS011;17348;50.948;10.696;2022-12-07T03:21:22;18.80;;;7.70;;
30571;SDS011;17348;50.948;10.696;2022-12-07T03:24:27;16.97;;;7.53;;
30571;SDS011;17348;50.948;10.696;2022-12-07T03:27:35;16.37;;;8.30;;
30571;SDS011;17348;50.948;10.696;2022-12-07T03:30:42;16.33;;;8.10;;
30571;SDS011;17348;50.948;10.696;2022-12-07T03:33:53;14.27;;;7.17;;
30571;SDS011;17348;50.948;10.696;2022-12-07T03:37:02;16.60;;;8.25;;
30571;SDS011;17348;50.948;10.696;2022-12-07T03:40:08;15.40;;;7.43;;
30571;SDS011;17348;50.948;10.696;2022-12-07T03:43:14;13.43;;;7.47;;
30571;SDS011;17348;50.948;10.696;2022-12-07T03:46:20;14.80;;;6.70;;
30571;SDS011;17348;50.948;10.696;2022-12-07T03:49:32;15.18;;;6.65;;
30571;SDS011;17348;50.948;10.696;2022-12-07T03:52:42;14.10;;;6.70;;
30571;SDS011;17348;50.948;10.696;2022-12-07T03:55:47;14.90;;;7.77;;
30571;SDS011;17348;50.948;10.696;2022-12-07T03:58:51;15.83;;;8.33;;
30571;SDS011;17348;50.948;10.696;2022-12-07T04:01:55;17.70;;;8.17;;
30571;SDS011;17348;50.948;10.696;2022-12-07T04:05:00;19.37;;;8.60;;
30571;SDS011;17348;50.948;10.696;2022-12-07T04:08:02;17.93;;;8.67;;
30571;SDS011;17348;50.948;10.696;2022-12-07T04:11:05;15.13;;;8.60;;
30571;SDS011;17348;50.948;10.696;2022-12-07T04:14:07;16.63;;;8.60;;
30571;SDS011;17348;50.948;10.696;2022-12-07T04:17:22;17.77;;;7.87;;
30571;SDS011;17348;50.948;10.696;2022-12-07T04:20:25;20.63;;;8.17;;
30571;SDS011;17348;50.948;10.696;2022-12-07T04:23:28;19.77;;;8.13;;
30571;SDS011;17348;50.948;10.696;2022-12-07T04:26:30;16.63;;;7.80;;
30571;SDS011;17348;50.948;10.696;2022-12-07T04:29:32;14.47;;;7.20;;
30571;SDS011;17348;50.948;10.696;2022-12-07T04:32:35;15.77;;;7.00;;
30571;SDS011;17348;50.948;10.696;2022-12-07T04:35:38;16.13;;;7.57;;
30571;SDS011;17348;50.948;10.696;2022-12-07T04:38:41;16.37;;;6.70;;
30571;SDS011;17348;50.948;10.696;2022-12-07T04:41:45;17.47;;;6.90;;
30571;SDS011;17348;50.948;10.696;2022-12-07T04:44:47;13.57;;;6.40;;
30571;SDS011;17348;50.948;10.696;2022-12-07T04:47:50;14.17;;;5.87;;
30571;SDS011;17348;50.948;10.696;2022-12-07T04:50:53;14.40;;;7.17;;
30571;SDS011;17348;50.948;10.696;2022-12-07T04:53:56;13.63;;;7.03;;
30571;SDS011;17348;50.948;10.696;2022-12-07T04:56:58;14.63;;;7.47;;
30571;SDS011;17348;50.948;10.696;2022-12-07T05:00:01;17.63;;;7.90;;
30571;SDS011;17348;50.948;10.696;2022-12-07T05:03:04;17.80;;;8.27;;
30571;SDS011;17348;50.948;10.696;2022-12-07T05:06:11;15.60;;;7.23;;
30571;SDS011;17348;50.948;10.696;2022-12-07T05:09:14;15.03;;;7.73;;
30571;SDS011;17348;50.948;10.696;2022-12-07T05:12:16;17.40;;;7.50;;
30571;SDS011;17348;50.948;10.696;2022-12-07T05:15:19;19.43;;;7.23;;
30571;SDS011;17348;50.948;10.696;2022-12-07T05:18:21;13.57;;;7.10;;
30571;SDS011;17348;50.948;10.696;2022-12-07T05:21:25;14.13;;;7.70;;
30571;SDS011;17348;50.948;10.696;2022-12-07T05:24:27;15.60;;;7.87;;
30571;SDS011;17348;50.948;10.696;2022-12-07T05:27:29;19.00;;;8.03;;
30571;SDS011;17348;50.948;10.696;2022-12-07T05:30:32;19.13;;;9.00;;
30571;SDS011;17348;50.948;10.696;2022-12-07T05:33:34;15.77;;;8.07;;
30571;SDS011;17348;50.948;10.696;2022-12-07T05:36:38;18.17;;;7.67;;
30571;SDS011;17348;50.948;10.696;2022-12-07T05:39:41;18.03;;;8.30;;
30571;SDS011;17348;50.948;10.696;2022-12-07T05:42:43;15.40;;;7.77;;
30571;SDS011;17348;50.948;10.696;2022-12-07T05:45:45;22.63;;;9.10;;
30571;SDS011;17348;50.948;10.696;2022-12-07T05:48:48;22.27;;;8.93;;
30571;SDS011;17348;50.948;10.696;2022-12-07T05:51:51;21.10;;;8.53;;
30571;SDS011;17348;50.948;10.696;2022-12-07T05:54:54;16.00;;;7.57;;
30571;SDS011;17348;50.948;10.696;2022-12-07T05:57:56;19.40;;;9.60;;
30571;SDS011;17348;50.948;10.696;2022-12-07T06:01:30;19.33;;;8.77;;
30571;SDS011;17348;50.948;10.696;2022-12-07T06:04:33;16.73;;;8.27;;
30571;SDS011;17348;50.948;10.696;2022-12-07T06:07:38;18.70;;;8.50;;
30571;SDS011;17348;50.948;10.696;2022-12-07T06:10:40;18.90;;;8.93;;
30571;SDS011;17348;50.948;10.696;2022-12-07T06:13:43;19.37;;;9.33;;
30571;SDS011;17348;50.948;10.696;2022-12-07T06:16:44;19.63;;;8.87;;
30571;SDS011;17348;50.948;10.696;2022-12-07T06:19:46;18.10;;;9.50;;
30571;SDS011;17348;50.948;10.696;2022-12-07T06:22:50;19.97;;;8.20;;
30571;SDS011;17348;50.948;10.696;2022-12-07T06:25:52;18.87;;;8.73;;
30571;SDS011;17348;50.948;10.696;2022-12-07T06:28:55;22.20;;;10.13;;
30571;SDS011;17348;50.948;10.696;2022-12-07T06:31:57;27.20;;;13.10;;
30571;SDS011;17348;50.948;10.696;2022-12-07T06:34:59;27.57;;;11.03;;
30571;SDS011;17348;50.948;10.696;2022-12-07T06:38:03;31.37;;;11.73;;
30571;SDS011;17348;50.948;10.696;2022-12-07T06:41:06;28.27;;;11.33;;
30571;SDS011;17348;50.948;10.696;2022-12-07T06:44:08;38.37;;;14.77;;
30571;SDS011;17348;50.948;10.696;2022-12-07T06:47:11;33.67;;;14.63;;
30571;SDS011;17348;50.948;10.696;2022-12-07T06:50:13;33.00;;;13.90;;
30571;SDS011;17348;50.948;10.696;2022-12-07T06:53:17;35.37;;;16.83;;
30571;SDS011;17348;50.948;10.696;2022-12-07T06:56:19;36.53;;;16.43;;
30571;SDS011;17348;50.948;10.696;2022-12-07T06:59:21;32.40;;;14.77;;
30571;SDS011;17348;50.948;10.696;2022-12-07T07:02:24;24.87;;;13.77;;
30571;SDS011;17348;50.948;10.696;2022-12-07T07:05:26;20.97;;;9.77;;
30571;SDS011;17348;50.948;10.696;2022-12-07T07:08:30;26.83;;;10.67;;
30571;SDS011;17348;50.948;10.696;2022-12-07T07:11:32;19.67;;;9.23;;
30571;SDS011;17348;50.948;10.696;2022-12-07T07:14:35;19.20;;;10.63;;
30571;SDS011;17348;50.948;10.696;2022-12-07T07:17:37;19.03;;;8.07;;
30571;SDS011;17348;50.948;10.696;2022-12-07T07:20:39;20.80;;;9.47;;
30571;SDS011;17348;50.948;10.696;2022-12-07T07:23:43;19.73;;;8.67;;
30571;SDS011;17348;50.948;10.696;2022-12-07T07:26:46;17.80;;;8.67;;
30571;SDS011;17348;50.948;10.696;2022-12-07T07:29:48;19.67;;;9.20;;
30571;SDS011;17348;50.948;10.696;2022-12-07T07:32:55;15.90;;;8.13;;
30571;SDS011;17348;50.948;10.696;2022-12-07T07:35:58;15.00;;;8.23;;
30571;SDS011;17348;50.948;10.696;2022-12-07T07:39:02;17.03;;;7.43;;
30571;SDS011;17348;50.948;10.696;2022-12-07T07:42:05;17.87;;;7.80;;
30571;SDS011;17348;50.948;10.696;2022-12-07T07:45:08;18.27;;;7.70;;
30571;SDS011;17348;50.948;10.696;2022-12-07T07:48:11;15.30;;;7.57;;
30571;SDS011;17348;50.948;10.696;2022-12-07T07:51:15;43.47;;;15.60;;
30571;SDS011;17348;50.948;10.696;2022-12-07T07:54:19;51.43;;;21.03;;
30571;SDS011;17348;50.948;10.696;2022-12-07T07:57:22;56.17;;;24.07;;
30571;SDS011;17348;50.948;10.696;2022-12-07T08:00:24;18.33;;;9.37;;
30571;SDS011;17348;50.948;10.696;2022-12-07T08:03:27;18.23;;;9.80;;
30571;SDS011;17348;50.948;10.696;2022-12-07T08:06:29;15.07;;;6.33;;
30571;SDS011;17348;50.948;10.696;2022-12-07T08:09:33;13.90;;;5.63;;
30571;SDS011;17348;50.948;10.696;2022-12-07T08:12:35;14.20;;;5.10;;
30571;SDS011;17348;50.948;10.696;2022-12-07T08:15:59;17.00;;;5.27;;
30571;SDS011;17348;50.948;10.696;2022-12-07T08:19:06;16.83;;;5.70;;
30571;SDS011;17348;50.948;10.696;2022-12-07T08:22:08;11.60;;;5.40;;
30571;SDS011;17348;50.948;10.696;2022-12-07T08:25:12;12.30;;;5.03;;
30571;SDS011;17348;50.948;10.696;2022-12-07T08:28:15;12.20;;;4.67;;
30571;SDS011;17348;50.948;10.696;2022-12-07T08:31:17;7.60;;;4.40;;
30571;SDS011;17348;50.948;10.696;2022-12-07T08:34:20;12.87;;;4.27;;
30571;SDS011;17348;50.948;10.696;2022-12-07T08:37:22;8.57;;;4.43;;
30571;SDS011;17348;50.948;10.696;2022-12-07T08:40:26;14.57;;;5.33;;
30571;SDS011;17348;50.948;10.696;2022-12-07T08:43:28;10.20;;;4.73;;
30571;SDS011;17348;50.948;10.696;2022-12-07T08:46:32;9.80;;;4.47;;
30571;SDS011;17348;50.948;10.696;2022-12-07T08:49:39;6.57;;;3.70;;
30571;SDS011;17348;50.948;10.696;2022-12-07T08:52:47;8.30;;;3.73;;
30571;SDS011;17348;50.948;10.696;2022-12-07T08:55:54;11.17;;;4.37;;
30571;SDS011;17348;50.948;10.696;2022-12-07T08:58:58;7.83;;;4.17;;
30571;SDS011;17348;50.948;10.696;2022-12-07T09:02:01;10.40;;;4.37;;
30571;SDS011;17348;50.948;10.696;2022-12-07T09:05:04;12.70;;;4.23;;
30571;SDS011;17348;50.948;10.696;2022-12-07T09:08:07;10.90;;;3.50;;
30571;SDS011;17348;50.948;10.696;2022-12-07T09:11:11;14.30;;;4.57;;
30571;SDS011;17348;50.948;10.696;2022-12-07T09:14:13;14.13;;;4.40;;
30571;SDS011;17348;50.948;10.696;2022-12-07T09:17:16;9.33;;;4.10;;
30571;SDS011;17348;50.948;10.696;2022-12-07T09:20:18;14.07;;;4.70;;
30571;SDS011;17348;50.948;10.696;2022-12-07T09:23:21;14.57;;;4.63;;
30571;SDS011;17348;50.948;10.696;2022-12-07T09:26:24;12.97;;;4.90;;
30571;SDS011;17348;50.948;10.696;2022-12-07T09:29:27;13.43;;;4.20;;
30571;SDS011;17348;50.948;10.696;2022-12-07T09:32:29;11.53;;;4.07;;
30571;SDS011;17348;50.948;10.696;2022-12-07T09:35:32;6.33;;;3.00;;
30571;SDS011;17348;50.948;10.696;2022-12-07T09:38:34;11.40;;;4.27;;
30571;SDS011;17348;50.948;10.696;2022-12-07T09:41:38;13.53;;;3.93;;
30571;SDS011;17348;50.948;10.696;2022-12-07T09:44:44;14.40;;;3.63;;
30571;SDS011;17348;50.948;10.696;2022-12-07T09:47:46;9.77;;;4.53;;
30571;SDS011;17348;50.948;10.696;2022-12-07T09:50:49;12.73;;;4.23;;
30571;SDS011;17348;50.948;10.696;2022-12-07T09:53:54;8.53;;;4.33;;
30571;SDS011;17348;50.948;10.696;2022-12-07T09:57:00;10.20;;;3.97;;
30571;SDS011;17348;50.948;10.696;2022-12-07T10:00:05;6.50;;;3.80;;
30571;SDS011;17348;50.948;10.696;2022-12-07T10:03:13;7.00;;;3.23;;
30571;SDS011;17348;50.948;10.696;2022-12-07T10:06:15;6.40;;;3.17;;
30571;SDS011;17348;50.948;10.696;2022-12-07T10:09:19;10.33;;;3.50;;
30571;SDS011;17348;50.948;10.696;2022-12-07T10:12:24;13.30;;;3.57;;
30571;SDS011;17348;50.948;10.696;2022-12-07T10:15:40;7.43;;;2.93;;
30571;SDS011;17348;50.948;10.696;2022-12-07T10:18:48;6.65;;;2.88;;
30571;SDS011;17348;50.948;10.696;2022-12-07T10:22:04;8.57;;;2.90;;
30571;SDS011;17348;50.948;10.696;2022-12-07T10:25:16;5.87;;;3.10;;
30571;SDS011;17348;50.948;10.696;2022-12-07T10:28:22;6.27;;;3.23;;
30571;SDS011;17348;50.948;10.696;2022-12-07T10:31:24;5.73;;;3.00;;
30571;SDS011;17348;50.948;10.696;2022-12-07T10:34:27;5.60;;;3.30;;
30571;SDS011;17348;50.948;10.696;2022-12-07T10:37:31;7.00;;;3.33;;
30571;SDS011;17348;50.948;10.696;2022-12-07T10:40:42;7.50;;;2.97;;
30571;SDS011;17348;50.948;10.696;2022-12-07T10:43:50;8.27;;;3.60;;
30571;SDS011;17348;50.948;10.696;2022-12-07T10:50:41;9.10;;;4.50;;
30571;SDS011;17348;50.948;10.696;2022-12-07T10:53:58;7.00;;;4.13;;
30571;SDS011;17348;50.948;10.696;2022-12-07T10:57:15;8.40;;;3.60;;
30571;SDS011;17348;50.948;10.696;2022-12-07T11:00:30;9.17;;;3.60;;
30571;SDS011;17348;50.948;10.696;2022-12-07T11:06:48;6.83;;;2.40;;
30571;SDS011;17348;50.948;10.696;2022-12-07T11:09:58;4.33;;;2.70;;
30571;SDS011;17348;50.948;10.696;2022-12-07T11:16:47;4.90;;;2.30;;
30571;SDS011;17348;50.948;10.696;2022-12-07T11:20:00;5.00;;;2.37;;
30571;SDS011;17348;50.948;10.696;2022-12-07T11:23:17;4.50;;;2.27;;
30571;SDS011;17348;50.948;10.696;2022-12-07T11:26:34;7.33;;;3.07;;
30571;SDS011;17348;50.948;10.696;2022-12-07T11:29:50;5.87;;;2.57;;
30571;SDS011;17348;50.948;10.696;2022-12-07T11:33:04;8.53;;;1.90;;
30571;SDS011;17348;50.948;10.696;2022-12-07T11:36:26;5.60;;;2.03;;
30571;SDS011;17348;50.948;10.696;2022-12-07T11:39:37;6.20;;;2.20;;
30571;SDS011;17348;50.948;10.696;2022-12-07T11:42:45;8.97;;;2.80;;
30571;SDS011;17348;50.948;10.696;2022-12-07T11:45:54;6.70;;;2.60;;
30571;SDS011;17348;50.948;10.696;2022-12-07T11:49:03;5.60;;;2.57;;
30571;SDS011;17348;50.948;10.696;2022-12-07T11:52:15;9.15;;;2.15;;
30571;SDS011;17348;50.948;10.696;2022-12-07T11:55:26;6.60;;;1.90;;
30571;SDS011;17348;50.948;10.696;2022-12-07T11:58:36;5.73;;;2.00;;
30571;SDS011;17348;50.948;10.696;2022-12-07T12:01:47;8.73;;;2.95;;
30571;SDS011;17348;50.948;10.696;2022-12-07T12:04:58;7.72;;;2.17;;
30571;SDS011;17348;50.948;10.696;2022-12-07T12:08:11;3.47;;;1.70;;
30571;SDS011;17348;50.948;10.696;2022-12-07T12:11:21;14.82;;;2.00;;
30571;SDS011;17348;50.948;10.696;2022-12-07T12:14:39;10.40;;;2.00;;
30571;SDS011;17348;50.948;10.696;2022-12-07T12:17:53;9.50;;;2.47;;
30571;SDS011;17348;50.948;10.696;2022-12-07T12:21:22;6.83;;;2.10;;
30571;SDS011;17348;50.948;10.696;2022-12-07T12:24:30;7.50;;;1.93;;
30571;SDS011;17348;50.948;10.696;2022-12-07T12:27:37;3.57;;;1.63;;
30571;SDS011;17348;50.948;10.696;2022-12-07T12:30:41;5.00;;;2.10;;
30571;SDS011;17348;50.948;10.696;2022-12-07T12:33:44;9.70;;;1.70;;
30571;SDS011;17348;50.948;10.696;2022-12-07T12:36:49;3.77;;;1.47;;
30571;SDS011;17348;50.948;10.696;2022-12-07T12:43:44;3.17;;;1.50;;
30571;SDS011;17348;50.948;10.696;2022-12-07T12:46:50;3.40;;;1.50;;
30571;SDS011;17348;50.948;10.696;2022-12-07T12:50:15;2.90;;;1.33;;
30571;SDS011;17348;50.948;10.696;2022-12-07T12:53:22;3.03;;;1.27;;
30571;SDS011;17348;50.948;10.696;2022-12-07T12:56:29;1.13;;;0.80;;
30571;SDS011;17348;50.948;10.696;2022-12-07T12:59:41;4.50;;;0.90;;
30571;SDS011;17348;50.948;10.696;2022-12-07T13:02:58;4.63;;;0.63;;
30571;SDS011;17348;50.948;10.696;2022-12-07T13:06:17;2.80;;;0.80;;
30571;SDS011;17348;50.948;10.696;2022-12-07T13:09:24;3.43;;;1.33;;
30571;SDS011;17348;50.948;10.696;2022-12-07T13:12:28;6.63;;;1.30;;
30571;SDS011;17348;50.948;10.696;2022-12-07T13:15:32;3.10;;;1.60;;
30571;SDS011;17348;50.948;10.696;2022-12-07T13:18:38;3.43;;;1.23;;
30571;SDS011;17348;50.948;10.696;2022-12-07T13:21:41;3.00;;;1.40;;
30571;SDS011;17348;50.948;10.696;2022-12-07T13:24:47;5.83;;;2.03;;
30571;SDS011;17348;50.948;10.696;2022-12-07T13:27:51;5.03;;;1.70;;
30571;SDS011;17348;50.948;10.696;2022-12-07T13:31:04;17.70;;;1.70;;
30571;SDS011;17348;50.948;10.696;2022-12-07T13:34:30;11.20;;;1.47;;
30571;SDS011;17348;50.948;10.696;2022-12-07T13:37:34;4.07;;;1.40;;
30571;SDS011;17348;50.948;10.696;2022-12-07T13:40:38;4.83;;;1.57;;
30571;SDS011;17348;50.948;10.696;2022-12-07T13:43:48;4.33;;;1.77;;
30571;SDS011;17348;50.948;10.696;2022-12-07T13:47:00;3.80;;;1.47;;
30571;SDS011;17348;50.948;10.696;2022-12-07T13:50:21;4.40;;;2.07;;
30571;SDS011;17348;50.948;10.696;2022-12-07T13:53:25;7.77;;;2.27;;
30571;SDS011;17348;50.948;10.696;2022-12-07T13:56:33;5.93;;;2.77;;
30571;SDS011;17348;50.948;10.696;2022-12-07T13:59:36;5.37;;;1.70;;
30571;SDS011;17348;50.948;10.696;2022-12-07T14:02:54;5.73;;;2.30;;
30571;SDS011;17348;50.948;10.696;2022-12-07T14:09:28;7.10;;;2.40;;
30571;SDS011;17348;50.948;10.696;2022-12-07T14:12:35;3.73;;;1.83;;
30571;SDS011;17348;50.948;10.696;2022-12-07T14:15:38;9.10;;;1.40;;
30571;SDS011;17348;50.948;10.696;2022-12-07T14:18:40;4.10;;;1.97;;
30571;SDS011;17348;50.948;10.696;2022-12-07T14:21:43;9.77;;;2.00;;
30571;SDS011;17348;50.948;10.696;2022-12-07T14:24:45;8.23;;;1.90;;
30571;SDS011;17348;50.948;10.696;2022-12-07T14:27:54;5.03;;;2.00;;
30571;SDS011;17348;50.948;10.696;2022-12-07T14:30:58;5.10;;;2.08;;
30571;SDS011;17348;50.948;10.696;2022-12-07T14:34:02;4.23;;;1.80;;
30571;SDS011;17348;50.948;10.696;2022-12-07T14:37:06;11.60;;;1.90;;
30571;SDS011;17348;50.948;10.696;2022-12-07T14:40:12;7.83;;;3.17;;
30571;SDS011;17348;50.948;10.696;2022-12-07T14:43:18;14.67;;;3.37;;
30571;SDS011;17348;50.948;10.696;2022-12-07T14:46:21;5.80;;;1.67;;
30571;SDS011;17348;50.948;10.696;2022-12-07T14:49:23;2.90;;;1.73;;
30571;SDS011;17348;50.948;10.696;2022-12-07T14:52:28;8.87;;;1.20;;
30571;SDS011;17348;50.948;10.696;2022-12-07T14:55:31;5.10;;;1.60;;
30571;SDS011;17348;50.948;10.696;2022-12-07T14:58:35;1.77;;;1.20;;
30571;SDS011;17348;50.948;10.696;2022-12-07T15:01:37;3.07;;;1.27;;
30571;SDS011;17348;50.948;10.696;2022-12-07T15:04:40;4.30;;;1.77;;
30571;SDS011;17348;50.948;10.696;2022-12-07T15:07:43;4.20;;;1.40;;
30571;SDS011;17348;50.948;10.696;2022-12-07T15:10:45;5.53;;;2.03;;
30571;SDS011;17348;50.948;10.696;2022-12-07T15:13:49;4.50;;;1.47;;
30571;SDS011;17348;50.948;10.696;2022-12-07T15:17:11;8.60;;;2.23;;
30571;SDS011;17348;50.948;10.696;2022-12-07T15:20:16;6.93;;;2.47;;
30571;SDS011;17348;50.948;10.696;2022-12-07T15:23:18;2.73;;;1.83;;
30571;SDS011;17348;50.948;10.696;2022-12-07T15:26:21;4.27;;;2.20;;
30571;SDS011;17348;50.948;10.696;2022-12-07T15:29:25;6.67;;;1.83;;
30571;SDS011;17348;50.948;10.696;2022-12-07T15:32:28;5.33;;;2.13;;
30571;SDS011;17348;50.948;10.696;2022-12-07T15:35:30;5.97;;;2.10;;
30571;SDS011;17348;50.948;10.696;2022-12-07T15:38:32;9.33;;;2.07;;
30571;SDS011;17348;50.948;10.696;2022-12-07T15:41:35;7.47;;;2.37;;
30571;SDS011;17348;50.948;10.696;2022-12-07T15:44:38;9.60;;;1.87;;
30571;SDS011;17348;50.948;10.696;2022-12-07T15:47:58;6.20;;;2.00;;
30571;SDS011;17348;50.948;10.696;2022-12-07T15:51:01;8.33;;;2.33;;
30571;SDS011;17348;50.948;10.696;2022-12-07T15:54:04;4.27;;;2.37;;
30571;SDS011;17348;50.948;10.696;2022-12-07T15:57:07;17.80;;;3.67;;
30571;SDS011;17348;50.948;10.696;2022-12-07T16:00:11;18.87;;;6.90;;
30571;SDS011;17348;50.948;10.696;2022-12-07T16:03:14;23.27;;;7.03;;
30571;SDS011;17348;50.948;10.696;2022-12-07T16:06:17;37.20;;;13.93;;
30571;SDS011;17348;50.948;10.696;2022-12-07T16:09:19;12.07;;;4.40;;
30571;SDS011;17348;50.948;10.696;2022-12-07T16:12:22;6.17;;;2.37;;
30571;SDS011;17348;50.948;10.696;2022-12-07T16:15:27;8.90;;;3.00;;
30571;SDS011;17348;50.948;10.696;2022-12-07T16:18:29;5.80;;;2.30;;
30571;SDS011;17348;50.948;10.696;2022-12-07T16:21:31;9.97;;;3.13;;
30571;SDS011;17348;50.948;10.696;2022-12-07T16:24:35;8.47;;;3.43;;
30571;SDS011;17348;50.948;10.696;2022-12-07T16:27:37;5.93;;;2.87;;
30571;SDS011;17348;50.948;10.696;2022-12-07T16:30:41;11.23;;;3.70;;
30571;SDS011;17348;50.948;10.696;2022-12-07T16:33:44;9.93;;;2.57;;
30571;SDS011;17348;50.948;10.696;2022-12-07T16:36:47;5.83;;;2.93;;
30571;SDS011;17348;50.948;10.696;2022-12-07T16:39:49;8.03;;;2.53;;
30571;SDS011;17348;50.948;10.696;2022-12-07T16:42:51;8.37;;;3.03;;
30571;SDS011;17348;50.948;10.696;2022-12-07T16:45:55;15.30;;;3.63;;
30571;SDS011;17348;50.948;10.696;2022-12-07T16:48:58;13.40;;;5.10;;
30571;SDS011;17348;50.948;10.696;2022-12-07T16:52:00;11.13;;;3.47;;
30571;SDS011;17348;50.948;10.696;2022-12-07T16:55:02;10.87;;;3.30;;
30571;SDS011;17348;50.948;10.696;2022-12-07T16:58:05;6.80;;;3.67;;
30571;SDS011;17348;50.948;10.696;2022-12-07T17:01:10;5.27;;;3.23;;
30571;SDS011;17348;50.948;10.696;2022-12-07T17:04:13;18.90;;;6.33;;
30571;SDS011;17348;50.948;10.696;2022-12-07T17:07:16;13.43;;;4.60;;
30571;SDS011;17348;50.948;10.696;2022-12-07T17:10:18;11.73;;;4.27;;
30571;SDS011;17348;50.948;10.696;2022-12-07T17:13:20;12.27;;;3.63;;
30571;SDS011;17348;50.948;10.696;2022-12-07T17:16:41;14.90;;;4.03;;
30571;SDS011;17348;50.948;10.696;2022-12-07T17:19:44;7.13;;;3.93;;
30571;SDS011;17348;50.948;10.696;2022-12-07T17:22:46;9.47;;;3.47;;
30571;SDS011;17348;50.948;10.696;2022-12-07T17:25:49;7.77;;;3.73;;
30571;SDS011;17348;50.948;10.696;2022-12-07T17:28:52;11.93;;;4.23;;
30571;SDS011;17348;50.948;10.696;2022-12-07T17:31:56;7.43;;;3.17;;
30571;SDS011;17348;50.948;10.696;2022-12-07T17:34:58;9.87;;;3.20;;
30571;SDS011;17348;50.948;10.696;2022-12-07T17:38:01;8.83;;;3.87;;
30571;SDS011;17348;50.948;10.696;2022-12-07T17:41:08;10.10;;;3.40;;
30571;SDS011;17348;50.948;10.696;2022-12-07T17:44:12;7.03;;;3.47;;
30571;SDS011;17348;50.948;10.696;2022-12-07T17:47:17;7.87;;;3.30;;
30571;SDS011;17348;50.948;10.696;2022-12-07T17:50:21;5.83;;;3.13;;
30571;SDS011;17348;50.948;10.696;2022-12-07T17:53:43;11.37;;;3.77;;
30571;SDS011;17348;50.948;10.696;2022-12-07T17:56:44;9.63;;;3.60;;
30571;SDS011;17348;50.948;10.696;2022-12-07T17:59:47;11.83;;;3.23;;
30571;SDS011;17348;50.948;10.696;2022-12-07T18:02:52;5.03;;;2.73;;
30571;SDS011;17348;50.948;10.696;2022-12-07T18:05:54;8.33;;;2.80;;
30571;SDS011;17348;50.948;10.696;2022-12-07T18:08:56;5.50;;;2.93;;
30571;SDS011;17348;50.948;10.696;2022-12-07T18:11:59;5.20;;;2.87;;
30571;SDS011;17348;50.948;10.696;2022-12-07T18:15:01;8.27;;;2.30;;
30571;SDS011;17348;50.948;10.696;2022-12-07T18:18:06;6.60;;;2.63;;
30571;SDS011;17348;50.948;10.696;2022-12-07T18:21:09;7.10;;;2.90;;
30571;SDS011;17348;50.948;10.696;2022-12-07T18:24:16;5.80;;;2.50;;
30571;SDS011;17348;50.948;10.696;2022-12-07T18:27:19;7.67;;;2.70;;
30571;SDS011;17348;50.948;10.696;2022-12-07T18:30:21;6.90;;;3.00;;